Time;durP1;ratioP1;P1;durP2;ratioP2;P2;SDS_P1;SDS_P2;PMS_P1;PMS_P2;Temp;Humidity;BMP_temperature;BMP_pressure;BME280_temperature;BME280_humidity;BME280_pressure;Samples;Min_cycle;Max_cycle;Signal;HPM_P1;HPM_P2
2023/06/18 00:00:34;;;;;;;8.87;8.17;;;25.00;47.00;;;;;;5053418;28;20443;-69
2023/06/18 00:02:59;;;;;;;10.20;9.30;;;25.00;47.00;;;;;;5035203;28;20180;-69
2023/06/18 00:05:25;;;;;;;10.57;8.70;;;25.00;47.00;;;;;;5033712;28;20282;-69
2023/06/18 00:07:50;;;;;;;8.73;8.03;;;25.00;46.90;;;;;;5035377;28;20194;-68
2023/06/18 00:10:16;;;;;;;9.57;8.57;;;25.00;47.00;;;;;;5041899;28;20233;-68
2023/06/18 00:12:41;;;;;;;10.17;9.17;;;25.00;47.00;;;;;;5051293;28;20245;-68
2023/06/18 00:15:07;;;;;;;9.80;8.90;;;24.90;46.90;;;;;;5054845;28;20205;-69
2023/06/18 00:17:33;;;;;;;10.10;8.13;;;24.90;46.90;;;;;;5054828;28;20179;-69
2023/06/18 00:19:58;;;;;;;9.00;8.10;;;24.90;46.90;;;;;;5054775;28;20440;-68
2023/06/18 00:22:24;;;;;;;9.57;8.77;;;24.90;46.90;;;;;;5035748;28;20584;-68
2023/06/18 00:24:50;;;;;;;9.40;8.60;;;24.90;46.90;;;;;;5035022;28;20195;-68
2023/06/18 00:27:16;;;;;;;9.20;8.40;;;24.90;46.90;;;;;;5034733;28;20203;-69
2023/06/18 00:29:47;;;;;;;8.67;7.87;;;24.90;47.00;;;;;;5034741;28;20258;-68
2023/06/18 00:32:14;;;;;;;8.97;8.27;;;24.90;46.90;;;;;;5034645;28;20957;-67
2023/06/18 00:34:41;;;;;;;9.37;8.47;;;24.90;47.00;;;;;;5037844;28;20441;-69
2023/06/18 00:37:09;;;;;;;10.00;9.10;;;24.90;47.00;;;;;;5053565;28;20928;-69
2023/06/18 00:39:35;;;;;;;10.20;8.77;;;24.90;47.00;;;;;;5054636;28;20405;-68
2023/06/18 00:42:01;;;;;;;9.63;8.73;;;24.90;47.00;;;;;;5054316;28;20421;-68
2023/06/18 00:44:27;;;;;;;10.20;9.30;;;24.90;46.90;;;;;;5054176;28;20426;-68
2023/06/18 00:46:56;;;;;;;9.50;8.63;;;24.90;46.90;;;;;;5054583;28;20414;-68
2023/06/18 00:49:22;;;;;;;9.80;8.80;;;24.90;46.90;;;;;;5051383;28;20194;-66
2023/06/18 00:51:49;;;;;;;8.90;8.10;;;24.90;46.90;;;;;;5035876;28;21020;-67
2023/06/18 00:54:16;;;;;;;9.90;8.63;;;24.90;46.90;;;;;;5040420;28;20433;-68
2023/06/18 00:56:50;;;;;;;9.37;8.47;;;24.90;46.80;;;;;;5044088;28;20438;-68
2023/06/18 00:59:21;;;;;;;9.53;8.60;;;24.90;46.80;;;;;;5033986;28;20935;-67
2023/06/18 01:01:48;;;;;;;11.27;9.33;;;24.90;46.90;;;;;;5034353;28;20422;-68
2023/06/18 01:04:13;;;;;;;8.70;8.00;;;24.90;46.90;;;;;;5043142;28;20433;-68
2023/06/18 01:06:40;;;;;;;8.80;8.07;;;24.90;46.90;;;;;;5053323;28;20926;-68
2023/06/18 01:09:07;;;;;;;9.40;8.50;;;24.90;46.90;;;;;;5053528;28;20179;-67
2023/06/18 01:11:37;;;;;;;8.27;7.57;;;24.90;46.90;;;;;;5053686;28;20503;-68
2023/06/18 01:14:09;;;;;;;8.50;7.73;;;24.90;46.90;;;;;;5051233;28;20438;-67
2023/06/18 01:16:46;;;;;;;9.57;8.67;;;24.80;46.70;;;;;;5041131;28;20442;-68
2023/06/18 01:19:31;;;;;;;8.00;7.30;;;24.90;46.90;;;;;;5033786;28;20398;-68
2023/06/18 01:22:01;;;;;;;8.37;7.67;;;24.90;46.90;;;;;;5033710;28;20394;-67
2023/06/18 01:24:30;;;;;;;8.00;7.40;;;24.90;46.80;;;;;;5034123;28;20445;-68
2023/06/18 01:26:56;;;;;;;8.67;7.97;;;24.90;46.90;;;;;;5033618;28;20411;-68
2023/06/18 01:29:26;;;;;;;8.80;8.10;;;24.80;46.80;;;;;;5044417;28;20467;-67
2023/06/18 01:31:52;;;;;;;8.70;7.93;;;24.90;46.80;;;;;;5053596;28;21035;-67
2023/06/18 01:34:18;;;;;;;8.80;8.03;;;24.80;46.70;;;;;;5053339;28;20409;-68
2023/06/18 01:36:53;;;;;;;8.80;8.10;;;24.80;46.70;;;;;;5053402;28;20925;-67
2023/06/18 01:39:38;;;;;;;8.53;7.83;;;24.80;46.60;;;;;;5053328;28;20151;-68
2023/06/18 01:42:14;;;;;;;10.30;7.90;;;24.80;46.60;;;;;;5053230;28;20406;-68
2023/06/18 01:44:44;;;;;;;7.73;7.03;;;24.80;46.70;;;;;;5036212;28;20953;-68
2023/06/18 01:47:13;;;;;;;9.00;8.20;;;24.80;46.60;;;;;;5033111;28;20937;-67
2023/06/18 01:49:40;;;;;;;8.70;8.00;;;24.80;46.60;;;;;;5033108;28;20541;-67
2023/06/18 01:52:07;;;;;;;7.93;7.33;;;24.80;46.60;;;;;;5033146;28;20449;-67
2023/06/18 01:54:33;;;;;;;7.40;6.80;;;24.80;46.50;;;;;;5033290;28;20471;-68
2023/06/18 01:57:00;;;;;;;8.03;7.33;;;24.80;46.50;;;;;;5049473;28;20421;-69
2023/06/18 01:59:26;;;;;;;7.67;6.93;;;24.80;46.40;;;;;;5052860;28;20171;-67
2023/06/18 02:01:52;;;;;;;7.97;7.27;;;24.80;46.50;;;;;;5052841;28;20783;-67
2023/06/18 02:04:17;;;;;;;7.90;7.20;;;24.80;46.40;;;;;;5053053;28;20410;-68
2023/06/18 02:06:43;;;;;;;8.83;8.10;;;24.80;46.40;;;;;;5052794;28;20605;-68
2023/06/18 02:09:08;;;;;;;8.90;8.10;;;24.80;46.30;;;;;;5051870;28;20274;-68
2023/06/18 02:11:34;;;;;;;7.73;7.03;;;24.70;46.20;;;;;;5032674;28;20187;-68
2023/06/18 02:14:00;;;;;;;8.97;8.17;;;24.80;46.20;;;;;;5032746;28;20176;-68
2023/06/18 02:16:25;;;;;;;8.27;7.50;;;24.70;46.10;;;;;;5046522;28;20203;-68
2023/06/18 02:18:51;;;;;;;7.70;7.10;;;24.70;46.70;;;;;;5051314;28;20202;-68
2023/06/18 02:21:17;;;;;;;8.43;7.73;;;24.70;46.10;;;;;;5052435;28;20253;-68
2023/06/18 02:23:42;;;;;;;8.23;7.53;;;24.70;46.10;;;;;;5052512;28;20182;-68
2023/06/18 02:26:08;;;;;;;8.57;7.77;;;24.70;46.10;;;;;;5050583;28;20195;-68
2023/06/18 02:28:34;;;;;;;8.20;7.50;;;24.70;46.10;;;;;;5052702;28;20697;-68
2023/06/18 02:31:00;;;;;;;8.03;7.33;;;24.70;46.10;;;;;;5052387;28;20413;-68
2023/06/18 02:33:26;;;;;;;8.03;7.30;;;24.70;46.10;;;;;;5050919;28;20199;-68
2023/06/18 02:35:51;;;;;;;8.30;7.60;;;24.70;46.10;;;;;;5040328;28;20212;-68
2023/06/18 02:38:17;;;;;;;7.53;6.83;;;24.70;46.20;;;;;;5032266;28;20413;-68
2023/06/18 02:40:43;;;;;;;7.87;7.10;;;24.70;46.10;;;;;;5032348;28;20171;-68
2023/06/18 02:43:08;;;;;;;7.90;7.20;;;24.70;46.10;;;;;;5033287;28;20183;-68
2023/06/18 02:45:34;;;;;;;8.33;7.53;;;24.70;46.10;;;;;;5032138;28;20195;-68
2023/06/18 02:48:00;;;;;;;7.67;7.07;;;24.70;46.10;;;;;;5032178;28;20275;-68
2023/06/18 02:50:26;;;;;;;8.10;7.40;;;24.70;46.10;;;;;;5032158;28;20226;-68
2023/06/18 02:52:51;;;;;;;8.20;7.43;;;24.70;46.00;;;;;;5032320;28;20242;-68
2023/06/18 02:55:17;;;;;;;8.03;7.30;;;24.70;46.00;;;;;;5040926;28;20203;-68
2023/06/18 02:57:43;;;;;;;8.00;7.27;;;24.70;46.00;;;;;;5051979;28;20179;-67
2023/06/18 03:00:14;;;;;;;7.47;6.87;;;24.70;46.00;;;;;;5051502;28;20545;-67
2023/06/18 03:02:41;;;;;;;8.30;7.60;;;24.70;46.00;;;;;;5052172;28;20450;-67
2023/06/18 03:05:08;;;;;;;8.03;7.43;;;24.70;45.90;;;;;;5052071;28;20812;-66
2023/06/18 03:07:33;;;;;;;8.10;7.17;;;24.70;45.90;;;;;;5051865;28;20409;-67
2023/06/18 03:09:59;;;;;;;7.90;7.10;;;24.70;45.90;;;;;;5037715;28;20426;-68
2023/06/18 03:12:25;;;;;;;7.37;6.70;;;24.70;45.90;;;;;;5031844;28;20231;-67
2023/06/18 03:14:50;;;;;;;9.00;8.20;;;24.70;45.90;;;;;;5038792;28;20457;-67
2023/06/18 03:17:16;;;;;;;9.03;8.13;;;24.70;45.90;;;;;;5051920;28;20676;-69
2023/06/18 03:19:42;;;;;;;7.93;7.23;;;24.70;45.90;;;;;;5051790;28;20168;-68
2023/06/18 03:22:07;;;;;;;8.40;7.60;;;24.70;45.90;;;;;;5051789;28;20171;-69
2023/06/18 03:24:34;;;;;;;8.07;7.30;;;24.60;45.70;;;;;;5051679;28;20182;-68
2023/06/18 03:27:00;;;;;;;8.37;7.67;;;24.60;45.80;;;;;;5034070;28;20191;-68
2023/06/18 03:29:26;;;;;;;8.03;7.37;;;24.60;45.80;;;;;;5031835;28;20414;-68
2023/06/18 03:31:53;;;;;;;9.67;8.77;;;24.60;45.80;;;;;;5031754;28;20684;-68
2023/06/18 03:34:20;;;;;;;9.07;8.30;;;24.60;45.80;;;;;;5036296;28;20421;-68
2023/06/18 03:36:47;;;;;;;9.00;8.10;;;24.60;45.80;;;;;;5051576;28;20486;-69
2023/06/18 03:39:18;;;;;;;8.37;7.57;;;24.60;45.80;;;;;;5051506;28;20463;-68
2023/06/18 03:41:44;;;;;;;8.10;7.40;;;24.60;45.90;;;;;;5048236;28;20430;-68
2023/06/18 03:44:10;;;;;;;8.50;7.80;;;24.60;45.80;;;;;;5030330;28;20461;-68
2023/06/18 03:46:35;;;;;;;8.33;7.73;;;24.60;45.80;;;;;;5031538;28;20191;-68
2023/06/18 03:49:01;;;;;;;8.83;8.03;;;24.60;45.90;;;;;;5031809;28;20301;-68
2023/06/18 03:51:27;;;;;;;8.30;7.50;;;24.60;45.90;;;;;;5031367;28;20671;-68
2023/06/18 03:53:53;;;;;;;8.50;7.80;;;24.60;45.90;;;;;;5034650;28;20186;-67
2023/06/18 03:56:19;;;;;;;7.30;6.60;;;24.60;45.90;;;;;;5051349;28;20437;-68
2023/06/18 03:58:46;;;;;;;9.00;8.20;;;24.60;45.90;;;;;;5051668;28;20648;-69
2023/06/18 04:01:12;;;;;;;8.93;8.07;;;24.60;45.90;;;;;;5051382;28;20414;-68
2023/06/18 04:03:37;;;;;;;9.17;8.17;;;24.60;45.90;;;;;;5049981;28;20429;-68
2023/06/18 04:06:04;;;;;;;7.80;7.10;;;24.60;45.90;;;;;;5051256;28;20210;-69
2023/06/18 04:08:30;;;;;;;8.23;7.53;;;24.60;45.90;;;;;;5043356;28;20178;-68
2023/06/18 04:10:56;;;;;;;9.40;8.50;;;24.60;45.90;;;;;;5031992;28;20468;-68
2023/06/18 04:13:22;;;;;;;8.27;7.57;;;24.60;45.90;;;;;;5034938;28;20462;-68
2023/06/18 04:15:48;;;;;;;8.27;7.47;;;24.60;45.90;;;;;;5034910;28;20199;-68
2023/06/18 04:18:14;;;;;;;8.60;7.83;;;24.60;45.90;;;;;;5034943;28;20449;-67
2023/06/18 04:20:40;;;;;;;8.23;7.63;;;24.60;45.80;;;;;;5034901;28;20835;-68
2023/06/18 04:23:06;;;;;;;7.50;6.90;;;24.60;45.80;;;;;;5036677;28;20198;-68
2023/06/18 04:25:32;;;;;;;8.10;7.50;;;24.60;45.80;;;;;;5054591;28;20549;-68
2023/06/18 04:27:58;;;;;;;8.50;7.70;;;24.60;45.80;;;;;;5054061;28;20437;-68
2023/06/18 04:30:23;;;;;;;7.80;7.20;;;24.70;46.00;;;;;;5053630;28;20424;-68
2023/06/18 04:32:49;;;;;;;8.73;7.97;;;24.60;45.90;;;;;;5054485;28;20199;-69
2023/06/18 04:35:15;;;;;;;8.17;7.47;;;24.60;45.90;;;;;;5054470;28;20195;-68
2023/06/18 04:37:40;;;;;;;8.30;7.60;;;24.70;46.00;;;;;;5043811;28;20480;-68
2023/06/18 04:40:07;;;;;;;8.03;7.30;;;24.70;46.00;;;;;;5034511;28;20184;-68
2023/06/18 04:42:32;;;;;;;8.97;8.17;;;24.70;46.10;;;;;;5034789;28;20182;-68
2023/06/18 04:44:58;;;;;;;8.37;7.67;;;24.70;46.10;;;;;;5034435;28;20437;-68
2023/06/18 04:47:23;;;;;;;8.63;7.83;;;24.70;46.10;;;;;;5036849;28;20187;-68
2023/06/18 04:49:50;;;;;;;8.17;7.47;;;24.70;46.10;;;;;;5054126;28;20171;-69
2023/06/18 04:52:15;;;;;;;8.33;7.63;;;24.70;46.70;;;;;;5054443;28;20190;-68
2023/06/18 04:54:42;;;;;;;8.20;7.40;;;24.70;46.10;;;;;;5054074;28;20984;-68
2023/06/18 04:57:09;;;;;;;8.37;7.67;;;24.70;46.10;;;;;;5054170;28;20201;-68
2023/06/18 04:59:36;;;;;;;8.60;7.80;;;24.70;46.00;;;;;;5054107;28;20405;-68
2023/06/18 05:02:03;;;;;;;8.97;8.17;;;24.70;46.00;;;;;;5052128;28;20425;-68
2023/06/18 05:04:29;;;;;;;8.53;7.83;;;24.70;46.00;;;;;;5053905;28;20417;-67
2023/06/18 05:06:54;;;;;;;7.87;7.17;;;24.80;46.00;;;;;;5053379;28;20421;-67
2023/06/18 05:09:20;;;;;;;7.87;7.17;;;24.80;46.00;;;;;;5053905;28;20179;-66
2023/06/18 05:11:45;;;;;;;8.20;7.50;;;24.80;45.90;;;;;;5053760;28;20210;-67
2023/06/18 05:14:11;;;;;;;8.90;8.20;;;24.80;45.90;;;;;;5053733;28;20225;-67
2023/06/18 05:16:36;;;;;;;7.90;7.27;;;24.80;45.90;;;;;;5053699;28;20195;-67
2023/06/18 05:19:03;;;;;;;8.63;7.93;;;24.80;45.90;;;;;;5051948;28;20190;-67
2023/06/18 05:21:28;;;;;;;8.63;7.60;;;24.80;45.90;;;;;;5053384;28;20198;-67
2023/06/18 05:23:54;;;;;;;8.47;7.67;;;24.80;45.90;;;;;;5052909;28;20414;-66
2023/06/18 05:26:21;;;;;;;10.97;8.27;;;24.80;45.90;;;;;;5053434;28;20274;-67
2023/06/18 05:28:47;;;;;;;9.27;8.33;;;24.80;45.90;;;;;;5034775;28;20206;-67
2023/06/18 05:31:12;;;;;;;8.73;7.93;;;24.80;45.90;;;;;;5033600;28;20442;-67
2023/06/18 05:33:38;;;;;;;10.77;8.40;;;24.80;46.00;;;;;;5033393;28;20454;-67
2023/06/18 05:36:04;;;;;;;8.07;7.37;;;24.80;46.10;;;;;;5035274;28;20631;-67
2023/06/18 05:38:29;;;;;;;6.73;6.13;;;24.80;46.20;;;;;;5032957;28;20168;-67
2023/06/18 05:40:55;;;;;;;7.53;6.93;;;24.80;46.20;;;;;;5045129;28;20225;-67
2023/06/18 05:43:20;;;;;;;7.67;7.07;;;24.80;46.30;;;;;;5052688;28;20171;-66
2023/06/18 05:45:46;;;;;;;8.13;7.33;;;24.80;46.40;;;;;;5051651;28;20199;-68
2023/06/18 05:48:14;;;;;;;7.77;7.07;;;24.80;46.50;;;;;;5037229;28;20301;-67
2023/06/18 05:50:40;;;;;;;9.07;8.27;;;24.80;46.50;;;;;;5033136;28;20190;-68
2023/06/18 05:53:06;;;;;;;7.47;6.80;;;24.80;46.60;;;;;;5033071;28;21062;-67
2023/06/18 05:55:31;;;;;;;7.20;6.50;;;24.80;46.60;;;;;;5032395;28;20191;-68
2023/06/18 05:57:57;;;;;;;7.10;6.60;;;24.80;46.50;;;;;;5032680;28;20264;-68
2023/06/18 06:00:22;;;;;;;7.60;7.00;;;24.80;46.50;;;;;;5032830;28;20179;-69
2023/06/18 06:02:48;;;;;;;7.57;6.97;;;24.90;46.60;;;;;;5033212;28;20184;-68
2023/06/18 06:05:14;;;;;;;7.67;7.03;;;24.90;46.60;;;;;;5032843;28;20266;-68
2023/06/18 06:07:39;;;;;;;7.33;6.63;;;24.90;46.60;;;;;;5046229;28;20202;-67
2023/06/18 06:10:06;;;;;;;7.97;7.20;;;24.90;46.70;;;;;;5052671;28;20182;-67
2023/06/18 06:12:31;;;;;;;7.40;6.80;;;24.90;46.70;;;;;;5052625;28;20195;-66
2023/06/18 06:14:57;;;;;;;7.30;6.60;;;24.90;46.80;;;;;;5052818;28;20776;-67
2023/06/18 06:17:22;;;;;;;7.07;6.37;;;24.90;46.80;;;;;;5046722;28;20174;-68
2023/06/18 06:19:48;;;;;;;7.83;7.23;;;24.90;46.80;;;;;;5042235;28;20171;-69
2023/06/18 06:22:14;;;;;;;8.67;7.87;;;24.90;46.90;;;;;;5051139;28;20175;-68
2023/06/18 06:24:40;;;;;;;6.93;6.33;;;24.90;46.90;;;;;;5052607;28;20229;-67
2023/06/18 06:27:06;;;;;;;6.27;5.77;;;24.90;46.90;;;;;;5039686;28;20262;-66
2023/06/18 06:29:31;;;;;;;7.30;6.70;;;24.90;46.90;;;;;;5031252;28;20445;-65
2023/06/18 06:31:57;;;;;;;7.40;6.80;;;24.90;47.50;;;;;;5032393;28;20617;-66
2023/06/18 06:34:22;;;;;;;7.40;6.80;;;25.00;47.00;;;;;;5032690;28;20664;-67
2023/06/18 06:36:49;;;;;;;6.57;5.97;;;25.00;47.00;;;;;;5032368;28;20550;-68
2023/06/18 06:39:16;;;;;;;7.40;6.70;;;25.00;47.00;;;;;;5032362;28;20254;-68
2023/06/18 06:41:42;;;;;;;7.50;6.70;;;25.00;47.00;;;;;;5032367;28;20406;-67
2023/06/18 06:44:07;;;;;;;7.43;6.43;;;25.00;47.00;;;;;;5032496;28;20775;-67
2023/06/18 06:46:34;;;;;;;7.50;6.80;;;25.00;47.10;;;;;;5043312;28;20257;-69
2023/06/18 06:49:00;;;;;;;6.40;5.90;;;25.00;47.10;;;;;;5049889;28;20175;-67
2023/06/18 06:51:25;;;;;;;6.77;6.17;;;25.00;47.70;;;;;;5051798;28;20855;-67
2023/06/18 06:53:52;;;;;;;6.93;6.33;;;25.00;47.10;;;;;;5051997;28;20297;-66
2023/06/18 06:56:17;;;;;;;6.57;6.03;;;25.00;47.10;;;;;;5052156;28;20521;-66
2023/06/18 06:58:43;;;;;;;6.80;6.10;;;25.00;47.10;;;;;;5051949;28;20178;-66
2023/06/18 07:01:09;;;;;;;6.93;6.33;;;25.00;47.10;;;;;;5047487;28;20252;-69
2023/06/18 07:03:35;;;;;;;6.90;6.20;;;25.00;47.10;;;;;;5050566;28;20258;-67
2023/06/18 07:06:03;;;;;;;7.60;6.90;;;25.00;47.10;;;;;;5044819;28;20541;-65
2023/06/18 07:08:31;;;;;;;6.57;5.97;;;25.00;47.20;;;;;;5042645;28;20940;-66
2023/06/18 07:10:56;;;;;;;7.70;7.00;;;25.00;47.20;;;;;;5052139;28;20459;-68
2023/06/18 07:13:22;;;;;;;7.17;6.57;;;25.00;47.20;;;;;;5051994;28;20504;-67
2023/06/18 07:15:47;;;;;;;6.60;6.00;;;25.00;47.20;;;;;;5051855;28;20721;-66
2023/06/18 07:18:13;;;;;;;7.00;6.40;;;25.00;47.20;;;;;;5038598;28;20266;-66
2023/06/18 07:20:39;;;;;;;7.70;6.93;;;25.00;47.20;;;;;;5031393;28;20221;-66
2023/06/18 07:23:04;;;;;;;7.00;6.40;;;25.00;47.20;;;;;;5031799;28;20187;-67
2023/06/18 07:25:30;;;;;;;6.53;5.93;;;25.00;47.20;;;;;;5031794;28;20223;-66
2023/06/18 07:27:55;;;;;;;6.30;5.80;;;25.00;47.20;;;;;;5031896;28;20184;-67
2023/06/18 07:30:21;;;;;;;7.43;6.73;;;25.00;47.30;;;;;;5031844;28;20611;-67
2023/06/18 07:32:46;;;;;;;7.60;7.00;;;25.00;47.20;;;;;;5042828;28;20207;-66
2023/06/18 07:35:12;;;;;;;7.43;6.83;;;25.00;47.30;;;;;;5051607;28;20191;-67
2023/06/18 07:37:38;;;;;;;7.63;6.83;;;25.00;47.80;;;;;;5051311;28;20175;-67
2023/06/18 07:40:04;;;;;;;6.73;6.13;;;25.10;47.30;;;;;;5051715;28;20175;-66
2023/06/18 07:42:29;;;;;;;7.20;6.60;;;25.10;47.30;;;;;;5051585;28;20179;-66
2023/06/18 07:44:55;;;;;;;7.70;7.00;;;25.10;47.40;;;;;;5052307;28;20498;-68
2023/06/18 07:47:20;;;;;;;7.77;7.00;;;25.10;47.30;;;;;;5040096;28;20180;-68
2023/06/18 07:49:46;;;;;;;7.50;6.73;;;25.10;47.50;;;;;;5035489;28;20199;-68
2023/06/18 07:52:11;;;;;;;7.60;7.00;;;25.10;47.30;;;;;;5035253;28;20195;-68
2023/06/18 07:54:37;;;;;;;7.60;6.90;;;25.10;47.30;;;;;;5034555;28;20203;-68
2023/06/18 07:57:03;;;;;;;7.00;6.40;;;25.10;47.40;;;;;;5035439;28;20167;-68
2023/06/18 07:59:28;;;;;;;6.80;6.20;;;25.10;47.40;;;;;;5035666;28;20532;-68
2023/06/18 08:01:54;;;;;;;7.50;6.90;;;25.10;47.40;;;;;;5047421;28;20183;-68
2023/06/18 08:04:20;;;;;;;8.00;7.30;;;25.10;47.40;;;;;;5055368;28;20179;-68
2023/06/18 08:06:48;;;;;;;7.40;6.70;;;25.10;47.40;;;;;;5055147;28;20266;-68
2023/06/18 08:09:14;;;;;;;8.03;7.23;;;25.10;47.40;;;;;;5054861;28;20179;-68
2023/06/18 08:11:40;;;;;;;8.00;7.30;;;25.10;47.50;;;;;;5054928;28;20420;-69
2023/06/18 08:14:05;;;;;;;6.23;5.80;;;25.10;47.40;;;;;;5054979;28;20397;-68
2023/06/18 08:16:31;;;;;;;7.20;6.60;;;25.10;47.40;;;;;;5036640;28;20198;-68
2023/06/18 08:18:57;;;;;;;7.23;6.53;;;25.10;47.50;;;;;;5035242;28;20197;-67
2023/06/18 08:21:22;;;;;;;8.10;6.40;;;25.10;47.50;;;;;;5034945;28;20217;-69
2023/06/18 08:23:48;;;;;;;7.03;6.43;;;25.10;47.50;;;;;;5034861;28;20282;-68
2023/06/18 08:26:14;;;;;;;7.50;6.80;;;25.10;47.50;;;;;;5034721;28;20191;-68
2023/06/18 08:28:40;;;;;;;6.73;6.20;;;25.10;47.50;;;;;;5034761;28;20172;-68
2023/06/18 08:31:06;;;;;;;7.03;6.43;;;25.10;47.50;;;;;;5050979;28;20433;-68
2023/06/18 08:33:31;;;;;;;7.20;6.57;;;25.10;47.50;;;;;;5054587;28;20195;-68
2023/06/18 08:35:57;;;;;;;7.30;6.70;;;25.10;47.50;;;;;;5054512;28;20187;-68
2023/06/18 08:38:22;;;;;;;7.07;6.00;;;25.10;47.50;;;;;;5054558;28;20171;-68
2023/06/18 08:40:55;;;;;;;7.00;6.40;;;25.10;47.50;;;;;;5054516;28;20175;-69
2023/06/18 08:43:26;;;;;;;6.77;6.17;;;25.10;47.50;;;;;;5054205;28;20651;-68
2023/06/18 08:45:53;;;;;;;7.20;6.60;;;25.10;47.50;;;;;;5054831;28;21000;-68
2023/06/18 08:48:27;;;;;;;7.70;7.00;;;25.10;47.60;;;;;;5054290;28;20417;-68
2023/06/18 08:50:59;;;;;;;7.77;7.07;;;25.10;47.50;;;;;;5054138;28;20433;-68
2023/06/18 08:53:34;;;;;;;7.40;6.77;;;25.10;47.60;;;;;;5054161;28;20457;-68
2023/06/18 08:56:00;;;;;;;6.80;6.20;;;25.10;47.60;;;;;;5054302;28;20429;-68
2023/06/18 08:58:27;;;;;;;6.93;6.43;;;25.10;47.60;;;;;;5052774;28;20429;-67
2023/06/18 09:00:54;;;;;;;7.30;6.70;;;25.10;47.60;;;;;;5054013;28;20414;-68
2023/06/18 09:03:20;;;;;;;7.53;6.83;;;25.10;47.60;;;;;;5054280;28;20413;-68
2023/06/18 09:05:47;;;;;;;7.30;6.60;;;25.10;47.60;;;;;;5053919;28;20889;-68
2023/06/18 09:08:13;;;;;;;6.70;6.10;;;25.10;47.60;;;;;;5053910;28;20441;-69
2023/06/18 09:10:39;;;;;;;7.80;7.20;;;25.10;47.60;;;;;;5053851;28;20410;-68
2023/06/18 09:13:04;;;;;;;7.00;6.33;;;25.10;47.60;;;;;;5045196;28;20984;-67
2023/06/18 09:15:30;;;;;;;7.70;6.50;;;25.10;47.70;;;;;;5032242;28;20194;-68
2023/06/18 09:17:56;;;;;;;7.27;6.63;;;25.10;47.60;;;;;;5033781;28;20229;-68
2023/06/18 09:20:22;;;;;;;6.77;6.17;;;25.10;47.60;;;;;;5033796;28;20552;-68
2023/06/18 09:22:48;;;;;;;7.43;6.80;;;25.10;47.70;;;;;;5033734;28;20168;-67
2023/06/18 09:25:21;;;;;;;7.10;6.50;;;25.10;47.70;;;;;;5033599;28;20433;-68
2023/06/18 09:27:47;;;;;;;7.80;7.10;;;25.10;47.80;;;;;;5041250;28;20600;-68
2023/06/18 09:30:24;;;;;;;7.47;6.87;;;25.10;47.70;;;;;;5053772;28;20413;-68
2023/06/18 09:32:50;;;;;;;7.00;6.00;;;25.10;47.70;;;;;;5053317;28;20481;-68
2023/06/18 09:35:17;;;;;;;6.67;6.07;;;25.10;47.80;;;;;;5053249;28;20465;-68
2023/06/18 09:37:44;;;;;;;8.83;5.80;;;25.10;47.80;;;;;;5053270;28;20181;-68
2023/06/18 09:40:17;;;;;;;7.30;6.70;;;25.10;47.80;;;;;;5053429;28;20413;-68
2023/06/18 09:42:48;;;;;;;7.03;6.37;;;25.10;47.80;;;;;;5037064;28;20563;-69
2023/06/18 09:45:15;;;;;;;5.97;5.47;;;25.20;47.90;;;;;;5033153;28;20505;-68
2023/06/18 09:47:44;;;;;;;7.20;6.60;;;25.10;47.80;;;;;;5033164;28;20417;-68
2023/06/18 09:50:10;;;;;;;7.03;6.40;;;25.10;47.80;;;;;;5039905;28;20441;-67
2023/06/18 09:52:44;;;;;;;6.43;5.93;;;25.20;47.90;;;;;;5051674;28;20544;-68
2023/06/18 09:55:30;;;;;;;6.93;6.37;;;25.20;47.90;;;;;;5052458;28;20526;-68
2023/06/18 09:57:55;;;;;;;7.40;6.70;;;25.10;47.80;;;;;;5050316;28;20534;-67
2023/06/18 10:00:21;;;;;;;7.60;6.90;;;25.10;47.80;;;;;;5051387;28;20444;-67
2023/06/18 10:02:47;;;;;;;6.70;6.10;;;25.20;47.90;;;;;;5052739;28;20179;-67
2023/06/18 10:05:13;;;;;;;6.10;5.60;;;25.10;47.80;;;;;;5052700;28;20437;-67
2023/06/18 10:07:42;;;;;;;7.20;6.50;;;25.10;47.80;;;;;;5052641;28;20568;-67
2023/06/18 10:10:16;;;;;;;7.27;5.23;;;25.20;47.90;;;;;;5033664;28;20586;-66
2023/06/18 10:12:49;;;;;;;6.60;5.90;;;25.10;47.80;;;;;;5032661;28;20529;-66
2023/06/18 10:15:16;;;;;;;6.30;5.70;;;25.20;47.90;;;;;;5031320;28;20462;-67
2023/06/18 10:17:51;;;;;;;7.80;6.00;;;25.20;47.90;;;;;;5036014;28;20786;-68
2023/06/18 10:20:17;;;;;;;6.70;6.10;;;25.20;47.90;;;;;;5052461;28;20401;-67
2023/06/18 10:22:49;;;;;;;6.30;5.70;;;25.20;47.80;;;;;;5052468;28;20872;-65
2023/06/18 10:25:15;;;;;;;7.57;6.50;;;25.20;47.80;;;;;;5052266;28;20961;-67
2023/06/18 10:27:41;;;;;;;7.10;6.50;;;25.20;47.80;;;;;;5052343;28;20945;-65
2023/06/18 10:30:08;;;;;;;7.30;6.60;;;25.20;47.80;;;;;;5052306;28;20504;-66
2023/06/18 10:32:35;;;;;;;6.70;6.20;;;25.20;47.80;;;;;;5041811;28;20458;-66
2023/06/18 10:35:03;;;;;;;7.63;5.50;;;25.20;47.90;;;;;;5031099;28;20422;-67
2023/06/18 10:37:34;;;;;;;7.17;6.57;;;25.20;47.80;;;;;;5036279;28;20426;-68
2023/06/18 10:40:01;;;;;;;6.53;5.93;;;25.20;47.80;;;;;;5052125;28;20401;-66
2023/06/18 10:42:31;;;;;;;7.37;6.57;;;25.20;47.90;;;;;;5050894;28;20917;-67
2023/06/18 10:44:59;;;;;;;7.07;6.37;;;25.20;47.90;;;;;;5052072;28;20421;-67
2023/06/18 10:47:28;;;;;;;6.17;5.63;;;25.20;47.80;;;;;;5052006;28;20783;-65
2023/06/18 10:50:00;;;;;;;6.80;6.10;;;25.20;47.80;;;;;;5050225;28;20443;-66
2023/06/18 10:52:26;;;;;;;7.20;6.50;;;25.30;47.90;;;;;;5051927;28;20905;-67
2023/06/18 10:54:55;;;;;;;6.67;6.07;;;25.20;47.90;;;;;;5051932;28;20429;-67
2023/06/18 10:57:28;;;;;;;7.00;6.40;;;25.30;47.90;;;;;;5046858;28;20580;-66
2023/06/18 10:59:56;;;;;;;6.17;5.67;;;25.20;47.80;;;;;;5032074;28;20387;-65
2023/06/18 11:02:34;;;;;;;7.77;7.07;;;25.30;47.90;;;;;;5032036;28;20446;-66
2023/06/18 11:05:00;;;;;;;8.30;7.40;;;25.30;47.90;;;;;;5034658;28;20525;-68
2023/06/18 11:07:27;;;;;;;11.07;9.30;;;25.20;47.90;;;;;;5032914;28;20522;-68
2023/06/18 11:10:03;;;;;;;10.70;9.70;;;25.20;47.90;;;;;;5031885;28;20410;-68
2023/06/18 11:12:31;;;;;;;11.37;9.27;;;25.30;47.90;;;;;;5031901;28;20961;-68
2023/06/18 11:15:20;;;;;;;12.27;10.13;;;25.20;47.90;;;;;;5031872;28;20514;-67
2023/06/18 11:17:51;;;;;;;14.47;12.30;;;25.30;47.90;;;;;;5042037;28;20424;-67
2023/06/18 11:20:22;;;;;;;15.53;13.80;;;25.30;48.00;;;;;;5053123;28;20433;-68
2023/06/18 11:22:53;;;;;;;23.10;16.10;;;25.30;48.00;;;;;;5055887;28;20958;-68
2023/06/18 11:25:19;;;;;;;22.80;18.17;;;25.30;48.00;;;;;;5055806;28;20451;-68
2023/06/18 11:27:46;;;;;;;25.70;18.10;;;25.30;48.10;;;;;;5055754;28;20413;-68
2023/06/18 11:30:14;;;;;;;23.97;18.53;;;25.30;48.70;;;;;;5055747;28;20433;-68
2023/06/18 11:32:40;;;;;;;24.80;18.77;;;25.30;48.00;;;;;;5038497;28;20481;-68
2023/06/18 11:35:10;;;;;;;26.87;19.40;;;25.30;48.10;;;;;;5034625;28;20962;-69
2023/06/18 11:37:41;;;;;;;25.00;19.10;;;25.30;48.10;;;;;;5046437;28;20426;-69
2023/06/18 11:40:09;;;;;;;19.63;17.57;;;25.30;48.10;;;;;;5055556;28;20429;-69
2023/06/18 11:42:47;;;;;;;25.17;19.30;;;25.30;48.10;;;;;;5055794;28;20413;-68
2023/06/18 11:45:13;;;;;;;24.63;20.00;;;25.30;48.20;;;;;;5055494;28;20429;-69
2023/06/18 11:47:46;;;;;;;21.50;18.43;;;25.30;48.20;;;;;;5053715;28;20833;-69
2023/06/18 11:50:11;;;;;;;27.10;20.40;;;25.30;48.20;;;;;;5055318;28;20508;-69
2023/06/18 11:52:37;;;;;;;25.27;19.43;;;25.30;48.20;;;;;;5055301;28;20878;-69
2023/06/18 11:55:04;;;;;;;27.00;20.83;;;25.30;48.20;;;;;;5055198;28;20187;-69
2023/06/18 11:57:30;;;;;;;29.63;20.77;;;25.30;48.20;;;;;;5053927;28;20409;-69
2023/06/18 11:59:56;;;;;;;27.73;20.37;;;25.30;48.20;;;;;;5055134;28;20454;-68
2023/06/18 12:02:23;;;;;;;24.80;20.97;;;25.30;48.20;;;;;;5046488;28;20434;-69
2023/06/18 12:04:50;;;;;;;25.73;20.40;;;25.30;48.20;;;;;;5035175;28;20196;-69
2023/06/18 12:07:25;;;;;;;21.77;17.60;;;25.30;48.30;;;;;;5035174;28;20419;-68
2023/06/18 12:09:53;;;;;;;20.77;17.07;;;25.30;48.20;;;;;;5035171;28;20902;-69
2023/06/18 12:12:47;;;;;;;25.47;18.00;;;25.30;48.20;;;;;;5035032;28;20457;-69
2023/06/18 12:15:38;;;;;;;23.20;17.10;;;25.30;48.10;;;;;;5035026;28;20979;-68
2023/06/18 12:18:16;;;;;;;19.47;16.37;;;25.30;48.20;;;;;;5034982;28;20407;-69
2023/06/18 12:20:42;;;;;;;17.27;15.43;;;25.30;48.10;;;;;;5034856;28;20394;-68
2023/06/18 12:23:08;;;;;;;21.20;16.50;;;25.30;48.20;;;;;;5049784;28;20428;-69
2023/06/18 12:25:34;;;;;;;17.60;14.60;;;25.30;48.10;;;;;;5054702;28;20195;-69
2023/06/18 12:28:02;;;;;;;16.63;14.73;;;25.30;48.20;;;;;;5054664;28;20404;-68
2023/06/18 12:30:46;;;;;;;20.23;16.00;;;25.30;48.10;;;;;;5054481;28;20596;-69
2023/06/18 12:33:13;;;;;;;17.40;15.00;;;25.30;48.10;;;;;;5048284;28;20559;-68
2023/06/18 12:35:50;;;;;;;21.43;16.07;;;25.30;48.10;;;;;;5034536;28;20429;-68
2023/06/18 12:38:16;;;;;;;20.47;14.90;;;25.30;48.10;;;;;;5034849;28;20399;-69
2023/06/18 12:40:49;;;;;;;14.33;12.77;;;25.30;48.10;;;;;;5034728;28;20411;-69
2023/06/18 12:43:17;;;;;;;16.83;12.83;;;25.30;48.00;;;;;;5052500;28;20272;-69